Time;durP1;ratioP1;P1;durP2;ratioP2;P2;SDS_P1;SDS_P2;PMS_P1;PMS_P2;Temp;Humidity;BMP_temperature;BMP_pressure;BME280_temperature;BME280_humidity;BME280_pressure;Samples;Min_cycle;Max_cycle;Signal;HPM_P1;HPM_P2
2023/06/29 00:01:20;;;;;;;5.57;3.67;;;18.20;1.00;;;;;;7384969;19;20022;-72
2023/06/29 00:03:50;;;;;;;4.20;3.30;;;18.20;1.00;;;;;;7390864;19;20364;-71
2023/06/29 00:06:25;;;;;;;5.47;3.45;;;18.10;1.00;;;;;;7385651;19;20372;-72
2023/06/29 00:08:55;;;;;;;6.80;3.47;;;17.90;1.00;;;;;;7387276;19;20014;-72
2023/06/29 00:11:25;;;;;;;5.45;3.88;;;17.80;1.00;;;;;;7384624;19;20179;-72
2023/06/29 00:13:55;;;;;;;4.38;3.70;;;17.80;1.00;;;;;;7390389;19;20018;-72
2023/06/29 00:16:25;;;;;;;6.10;3.95;;;17.70;1.00;;;;;;7385150;19;20432;-72
2023/06/29 00:18:55;;;;;;;6.30;3.92;;;17.60;1.00;;;;;;7387280;19;20398;-70
2023/06/29 00:21:28;;;;;;;5.10;3.92;;;17.60;1.00;;;;;;7385309;19;20018;-71
2023/06/29 00:23:58;;;;;;;6.95;3.90;;;17.60;1.00;;;;;;7390325;19;20722;-71
2023/06/29 00:26:29;;;;;;;6.53;4.15;;;17.70;1.00;;;;;;7386903;19;20066;-71
2023/06/29 00:28:59;;;;;;;5.47;3.58;;;17.80;1.00;;;;;;7387296;19;20125;-72
2023/06/29 00:31:29;;;;;;;6.20;3.85;;;17.70;1.00;;;;;;7384811;19;20052;-72
2023/06/29 00:33:59;;;;;;;6.32;4.10;;;17.50;1.00;;;;;;7389836;19;20086;-71
2023/06/29 00:36:32;;;;;;;5.97;4.10;;;17.60;1.00;;;;;;7384434;19;20495;-71
2023/06/29 00:39:01;;;;;;;8.23;4.10;;;17.70;1.00;;;;;;7388401;19;20049;-71
2023/06/29 00:41:31;;;;;;;6.35;3.78;;;17.50;1.00;;;;;;7391381;19;20043;-71
2023/06/29 00:44:01;;;;;;;7.10;4.43;;;17.50;1.00;;;;;;7396812;19;20027;-71
2023/06/29 00:46:32;;;;;;;6.88;3.78;;;17.40;1.00;;;;;;7393870;19;20014;-72
2023/06/29 00:49:02;;;;;;;7.60;4.40;;;17.30;1.00;;;;;;7391523;19;20085;-71
2023/06/29 00:51:35;;;;;;;4.90;4.03;;;17.30;1.00;;;;;;7391043;19;20038;-71
2023/06/29 00:54:05;;;;;;;7.65;4.25;;;17.40;1.00;;;;;;7396819;19;20039;-71
2023/06/29 00:56:37;;;;;;;7.53;4.28;;;17.40;1.00;;;;;;7391430;19;20387;-71
2023/06/29 00:59:07;;;;;;;5.85;4.10;;;17.30;1.00;;;;;;7393283;19;20010;-71
2023/06/29 01:01:38;;;;;;;6.30;4.03;;;17.30;1.00;;;;;;7390408;19;20018;-71
2023/06/29 01:04:08;;;;;;;5.45;4.25;;;17.20;1.00;;;;;;7396343;19;20050;-72
2023/06/29 01:06:44;;;;;;;13.48;5.18;;;17.10;1.00;;;;;;7391360;19;20018;-71
2023/06/29 01:09:16;;;;;;;6.07;4.47;;;17.10;1.00;;;;;;7392169;19;20495;-71
2023/06/29 01:11:46;;;;;;;7.80;4.00;;;17.10;1.00;;;;;;7392811;19;20025;-71
2023/06/29 01:14:18;;;;;;;12.63;4.38;;;17.10;1.00;;;;;;7391857;19;20022;-71
2023/06/29 01:16:49;;;;;;;6.65;4.10;;;17.10;1.00;;;;;;7388960;19;20368;-71
2023/06/29 01:19:25;;;;;;;6.68;4.40;;;17.00;1.00;;;;;;7392462;19;20503;-71
2023/06/29 01:22:04;;;;;;;8.23;4.10;;;17.00;1.00;;;;;;7392525;19;20010;-71
2023/06/29 01:24:42;;;;;;;7.03;4.63;;;16.90;1.00;;;;;;7391068;19;20014;-71
2023/06/29 01:27:12;;;;;;;4.65;3.95;;;16.80;1.00;;;;;;7392357;19;20697;-71
2023/06/29 01:29:43;;;;;;;7.20;4.07;;;16.90;1.00;;;;;;7393415;19;20022;-71
2023/06/29 01:32:14;;;;;;;8.18;4.22;;;16.80;1.00;;;;;;7392108;19;20538;-71
2023/06/29 01:34:44;;;;;;;6.57;4.20;;;16.80;1.00;;;;;;7391542;19;20082;-71
2023/06/29 01:37:16;;;;;;;9.90;4.40;;;16.90;1.00;;;;;;7388520;19;20026;-71
2023/06/29 01:39:53;;;;;;;6.78;4.20;;;16.80;1.00;;;;;;7391321;19;20022;-71
2023/06/29 01:42:26;;;;;;;7.28;4.63;;;16.80;1.00;;;;;;7391821;19;20039;-71
2023/06/29 01:44:56;;;;;;;6.18;4.82;;;16.70;1.00;;;;;;7391017;19;20035;-72
2023/06/29 01:47:26;;;;;;;6.28;4.72;;;16.60;1.00;;;;;;7390889;19;20031;-71
2023/06/29 01:49:57;;;;;;;7.47;4.40;;;16.70;1.00;;;;;;7389762;19;20015;-71
2023/06/29 01:52:27;;;;;;;5.28;4.38;;;16.80;1.00;;;;;;7390826;19;20014;-72
2023/06/29 01:55:00;;;;;;;5.53;4.30;;;16.70;1.00;;;;;;7390752;19;20070;-71
2023/06/29 01:57:31;;;;;;;6.47;4.40;;;16.60;1.00;;;;;;7389590;19;20426;-71
2023/06/29 02:00:03;;;;;;;12.10;4.50;;;16.60;1.00;;;;;;7389629;19;20027;-72
2023/06/29 02:02:33;;;;;;;6.20;4.50;;;16.60;1.00;;;;;;7391643;19;20392;-71
2023/06/29 02:05:04;;;;;;;6.13;4.55;;;16.60;1.00;;;;;;7390393;19;20520;-71
2023/06/29 02:07:33;;;;;;;6.97;4.60;;;16.50;1.00;;;;;;7390534;19;20507;-71
2023/06/29 02:10:07;;;;;;;7.50;5.00;;;16.50;1.00;;;;;;7389616;19;20486;-71
2023/06/29 02:12:40;;;;;;;6.35;4.25;;;16.50;1.00;;;;;;7391697;19;20039;-70
2023/06/29 02:15:11;;;;;;;6.75;4.75;;;16.30;1.00;;;;;;7390403;19;20014;-71
2023/06/29 02:17:41;;;;;;;7.25;4.70;;;16.40;1.00;;;;;;7389135;19;20014;-71
2023/06/29 02:20:12;;;;;;;6.85;4.80;;;16.40;1.00;;;;;;7388655;19;20026;-73
2023/06/29 02:22:42;;;;;;;9.50;5.25;;;16.40;1.00;;;;;;7390770;19;20491;-72
2023/06/29 02:25:16;;;;;;;6.45;4.25;;;16.40;1.00;;;;;;7389656;19;20010;-70
2023/06/29 02:27:46;;;;;;;7.40;4.60;;;16.30;1.00;;;;;;7390584;19;20011;-72
2023/06/29 02:30:17;;;;;;;5.93;4.40;;;16.40;1.00;;;;;;7392110;19;20014;-71
2023/06/29 02:32:46;;;;;;;7.78;4.75;;;16.50;1.00;;;;;;7391014;19;20035;-70
2023/06/29 02:35:17;;;;;;;8.00;4.93;;;16.50;1.00;;;;;;7388961;19;20361;-71
2023/06/29 02:37:47;;;;;;;9.18;5.20;;;16.40;1.00;;;;;;7388890;19;20731;-70
2023/06/29 02:40:19;;;;;;;5.35;4.45;;;16.30;1.00;;;;;;7388950;19;20044;-71
2023/06/29 02:42:49;;;;;;;6.15;4.68;;;16.30;1.00;;;;;;7390887;19;20026;-71
2023/06/29 02:45:19;;;;;;;6.13;4.70;;;16.10;1.00;;;;;;7388969;19;20538;-71
2023/06/29 02:47:49;;;;;;;6.38;4.75;;;16.00;1.00;;;;;;7389397;19;20018;-71
2023/06/29 02:50:19;;;;;;;6.88;4.45;;;16.00;1.00;;;;;;7388557;19;20024;-70
2023/06/29 02:52:49;;;;;;;9.23;5.20;;;16.10;1.00;;;;;;7389993;19;20337;-71
2023/06/29 02:55:24;;;;;;;7.80;4.70;;;16.00;1.00;;;;;;7388851;19;20010;-71
2023/06/29 02:57:54;;;;;;;6.15;4.93;;;16.00;1.00;;;;;;7387671;19;20011;-71
2023/06/29 03:00:24;;;;;;;6.53;4.50;;;15.90;1.00;;;;;;7385731;19;20350;-71
2023/06/29 03:02:54;;;;;;;10.48;4.93;;;15.70;1.00;;;;;;7387354;19;20021;-71
2023/06/29 03:05:24;;;;;;;6.88;5.20;;;15.60;1.00;;;;;;7388409;19;20019;-71
2023/06/29 03:07:54;;;;;;;13.50;5.85;;;15.70;1.00;;;;;;7388355;19;20478;-71
2023/06/29 03:10:27;;;;;;;7.50;4.60;;;15.70;1.00;;;;;;7387857;19;20019;-71
2023/06/29 03:12:57;;;;;;;7.80;5.22;;;15.80;1.00;;;;;;7389726;19;20010;-70
2023/06/29 03:15:27;;;;;;;6.35;5.18;;;15.70;1.00;;;;;;7386675;19;20035;-71
2023/06/29 03:17:56;;;;;;;6.90;5.15;;;15.70;1.00;;;;;;7385487;19;20010;-71
2023/06/29 03:20:27;;;;;;;7.93;5.45;;;15.80;1.00;;;;;;7387687;19;20047;-71
2023/06/29 03:22:56;;;;;;;6.90;4.97;;;15.80;1.00;;;;;;7389434;19;20011;-71
2023/06/29 03:25:29;;;;;;;8.20;5.05;;;15.80;1.00;;;;;;7387307;19;20014;-71
2023/06/29 03:27:59;;;;;;;9.10;5.07;;;15.60;1.00;;;;;;7387943;19;20036;-71
2023/06/29 03:30:29;;;;;;;7.15;5.20;;;15.70;1.00;;;;;;7390544;19;20052;-73
2023/06/29 03:33:00;;;;;;;6.30;5.10;;;15.80;1.00;;;;;;7389124;19;20007;-71
2023/06/29 03:35:30;;;;;;;6.15;4.90;;;15.80;1.00;;;;;;7387706;19;20038;-71
2023/06/29 03:38:00;;;;;;;7.65;4.80;;;15.80;1.00;;;;;;7386706;19;20011;-71
2023/06/29 03:40:32;;;;;;;7.50;5.28;;;15.80;1.00;;;;;;7386518;19;20097;-71
2023/06/29 03:43:02;;;;;;;7.20;4.88;;;15.90;1.00;;;;;;7388798;19;20014;-71
2023/06/29 03:45:32;;;;;;;5.78;5.15;;;16.10;1.00;;;;;;7387302;19;20014;-71
2023/06/29 03:48:02;;;;;;;11.32;5.80;;;16.60;1.00;;;;;;7386321;19;20015;-71
2023/06/29 03:50:32;;;;;;;6.35;4.63;;;16.80;1.00;;;;;;7385657;19;20015;-71
2023/06/29 03:53:02;;;;;;;6.40;4.65;;;17.30;1.00;;;;;;7388444;19;20030;-71
2023/06/29 03:55:35;;;;;;;8.77;4.80;;;17.30;1.00;;;;;;7387238;19;20018;-71
2023/06/29 03:58:05;;;;;;;5.97;4.68;;;17.30;1.00;;;;;;7386002;19;20014;-72
2023/06/29 04:00:35;;;;;;;7.72;4.45;;;18.10;1.00;;;;;;7386093;19;20014;-72
2023/06/29 04:03:05;;;;;;;5.40;4.15;;;18.20;1.00;;;;;;7388535;19;20018;-71
2023/06/29 04:05:35;;;;;;;8.48;4.50;;;18.90;1.00;;;;;;7386891;19;20014;-72
2023/06/29 04:08:06;;;;;;;6.13;4.35;;;19.20;1.00;;;;;;7387396;19;20014;-71
2023/06/29 04:10:39;;;;;;;5.75;4.20;;;19.70;1.00;;;;;;7383715;19;20031;-72
2023/06/29 04:13:09;;;;;;;7.45;4.63;;;19.90;1.00;;;;;;7385731;19;20042;-72
2023/06/29 04:15:38;;;;;;;5.63;4.40;;;20.20;1.00;;;;;;7394242;19;20018;-72
2023/06/29 04:18:09;;;;;;;4.38;3.83;;;20.40;1.00;;;;;;7393366;19;20014;-72
2023/06/29 04:20:39;;;;;;;8.50;4.85;;;20.50;1.00;;;;;;7392658;19;20018;-71
2023/06/29 04:23:11;;;;;;;7.45;4.53;;;21.40;1.00;;;;;;7395452;19;20019;-71
2023/06/29 04:25:44;;;;;;;8.93;4.90;;;21.60;1.00;;;;;;7393745;19;20018;-71
2023/06/29 04:28:14;;;;;;;8.52;4.88;;;21.90;1.00;;;;;;7394058;19;20035;-70
2023/06/29 04:30:45;;;;;;;7.43;4.43;;;21.90;1.00;;;;;;7393949;19;20014;-71
2023/06/29 04:33:15;;;;;;;4.30;3.67;;;21.80;1.00;;;;;;7390968;19;20022;-70
2023/06/29 04:35:47;;;;;;;5.80;4.05;;;22.00;1.00;;;;;;7393874;19;20333;-71
2023/06/29 04:38:17;;;;;;;5.20;4.18;;;22.10;1.00;;;;;;7392483;19;20018;-71
2023/06/29 04:40:53;;;;;;;6.07;3.92;;;22.40;1.00;;;;;;7391543;19;20014;-71
2023/06/29 04:43:23;;;;;;;5.45;3.92;;;22.70;1.00;;;;;;7394161;19;20093;-71
2023/06/29 04:45:53;;;;;;;8.38;4.38;;;23.20;1.00;;;;;;7393204;19;20515;-71
2023/06/29 04:48:24;;;;;;;6.38;4.38;;;23.20;1.00;;;;;;7392934;19;20022;-71
2023/06/29 04:50:54;;;;;;;8.85;4.50;;;23.40;1.00;;;;;;7390332;19;20444;-71
2023/06/29 04:53:25;;;;;;;8.23;4.78;;;23.50;1.00;;;;;;7393975;19;20022;-71
2023/06/29 04:55:58;;;;;;;11.25;5.00;;;23.40;1.00;;;;;;7393142;19;20018;-73
2023/06/29 04:58:27;;;;;;;11.73;5.47;;;23.50;1.00;;;;;;7391912;19;20042;-72
2023/06/29 05:00:58;;;;;;;6.75;4.20;;;23.90;1.00;;;;;;7390417;19;20014;-72
2023/06/29 05:03:29;;;;;;;8.77;4.63;;;24.30;1.00;;;;;;7393662;19;20015;-71
2023/06/29 05:05:59;;;;;;;10.63;4.75;;;23.70;1.00;;;;;;7392803;19;20015;-72
2023/06/29 05:08:29;;;;;;;6.00;4.70;;;24.20;1.00;;;;;;7392548;19;20094;-71
2023/06/29 05:11:01;;;;;;;7.47;4.38;;;23.80;1.00;;;;;;7389934;19;20015;-72
2023/06/29 05:13:35;;;;;;;7.72;4.65;;;23.90;1.00;;;;;;7393431;19;20010;-71
2023/06/29 05:16:06;;;;;;;7.68;5.00;;;23.70;1.00;;;;;;7392496;19;20373;-71
2023/06/29 05:18:37;;;;;;;8.05;4.75;;;23.40;1.00;;;;;;7391393;19;20042;-71
2023/06/29 05:21:08;;;;;;;5.63;4.50;;;24.70;1.00;;;;;;7389934;19;20010;-71
2023/06/29 05:23:38;;;;;;;7.15;4.57;;;24.40;1.00;;;;;;7392043;19;20733;-71
2023/06/29 05:26:11;;;;;;;8.13;4.60;;;24.20;1.00;;;;;;7389365;19;20338;-71
2023/06/29 05:28:41;;;;;;;8.52;4.32;;;24.90;1.00;;;;;;7392316;19;20039;-71
2023/06/29 05:31:28;;;;;;;7.13;4.05;;;24.90;1.00;;;;;;7389577;19;20022;-72
2023/06/29 05:33:58;;;;;;;7.43;4.43;;;26.40;1.00;;;;;;7392330;19;20022;-73
2023/06/29 05:36:29;;;;;;;5.43;4.07;;;25.10;1.00;;;;;;7391550;19;20391;-72
2023/06/29 05:38:59;;;;;;;8.73;4.55;;;24.50;1.00;;;;;;7390223;19;20039;-72
2023/06/29 05:41:32;;;;;;;7.90;4.43;;;24.50;1.00;;;;;;7388814;19;20014;-71
2023/06/29 05:44:02;;;;;;;6.85;4.05;;;25.50;1.00;;;;;;7392422;19;20042;-71
2023/06/29 05:46:33;;;;;;;6.63;4.10;;;25.60;1.00;;;;;;7391370;19;20039;-71
2023/06/29 05:49:04;;;;;;;5.25;3.63;;;24.90;1.00;;;;;;7390604;19;20354;-72
2023/06/29 05:51:37;;;;;;;7.68;4.40;;;25.70;1.00;;;;;;7386850;19;20018;-71
2023/06/29 05:54:08;;;;;;;7.70;4.20;;;24.80;1.00;;;;;;7392532;19;20351;-72
2023/06/29 05:56:40;;;;;;;6.07;4.15;;;25.60;1.00;;;;;;7390500;19;20237;-71
2023/06/29 05:59:10;;;;;;;5.82;4.15;;;25.10;1.00;;;;;;7389760;19;20106;-73
2023/06/29 06:01:40;;;;;;;6.50;3.83;;;25.70;1.00;;;;;;7390592;19;20014;-70
2023/06/29 06:04:10;;;;;;;6.35;4.00;;;25.20;1.00;;;;;;7392102;19;20020;-72
2023/06/29 06:06:40;;;;;;;6.80;3.58;;;24.10;1.00;;;;;;7390418;19;20106;-71
2023/06/29 06:09:10;;;;;;;12.48;4.55;;;23.50;1.00;;;;;;7390582;19;20246;-72
2023/06/29 06:11:42;;;;;;;11.52;4.68;;;22.60;1.00;;;;;;7390019;19;20018;-72
2023/06/29 06:14:12;;;;;;;8.60;4.03;;;22.20;1.00;;;;;;7391472;19;20027;-73
2023/06/29 06:16:42;;;;;;;9.10;3.97;;;22.00;1.00;;;;;;7389639;19;20039;-71
2023/06/29 06:19:12;;;;;;;5.85;3.75;;;22.10;1.00;;;;;;7389563;19;20366;-73
2023/06/29 06:21:42;;;;;;;7.60;3.95;;;21.90;1.00;;;;;;7390752;19;20022;-72
2023/06/29 06:24:13;;;;;;;10.38;4.00;;;21.80;1.00;;;;;;7392182;19;20023;-72
2023/06/29 06:26:46;;;;;;;5.25;3.80;;;22.30;1.00;;;;;;7388664;19;20088;-72
2023/06/29 06:29:16;;;;;;;8.13;3.85;;;22.30;1.00;;;;;;7390957;19;20019;-71
2023/06/29 06:31:46;;;;;;;6.95;3.97;;;22.60;1.00;;;;;;7388610;19;20014;-71
2023/06/29 06:34:16;;;;;;;4.55;3.30;;;22.40;1.00;;;;;;7391328;19;20098;-71
2023/06/29 06:36:46;;;;;;;9.82;3.70;;;22.30;1.00;;;;;;7389298;19;20418;-71
2023/06/29 06:39:16;;;;;;;8.48;3.58;;;22.80;1.00;;;;;;7388087;19;20501;-72
2023/06/29 06:41:49;;;;;;;4.65;2.65;;;22.90;1.00;;;;;;7389581;19;20017;-73
2023/06/29 06:44:19;;;;;;;4.57;3.00;;;24.30;1.00;;;;;;7391543;19;20010;-72
2023/06/29 06:46:49;;;;;;;4.53;3.17;;;24.00;1.00;;;;;;7389521;19;20360;-71
2023/06/29 06:49:19;;;;;;;5.07;3.05;;;24.20;1.00;;;;;;7386378;19;20503;-72
2023/06/29 06:51:49;;;;;;;6.10;3.22;;;24.00;1.00;;;;;;7388761;19;20014;-72
2023/06/29 06:54:19;;;;;;;6.00;3.40;;;23.10;1.00;;;;;;7390871;19;20832;-72
2023/06/29 06:56:55;;;;;;;5.20;2.72;;;22.80;1.00;;;;;;7389323;19;20013;-73
2023/06/29 06:59:26;;;;;;;6.28;3.05;;;23.30;1.00;;;;;;7388746;19;20351;-72
2023/06/29 07:01:56;;;;;;;4.78;2.47;;;23.40;1.00;;;;;;7388326;19;20018;-72
2023/06/29 07:04:26;;;;;;;5.88;3.10;;;23.70;1.00;;;;;;7391454;19;20022;-72
2023/06/29 07:06:56;;;;;;;7.32;3.22;;;23.60;1.00;;;;;;7388934;19;20031;-72
2023/06/29 07:09:27;;;;;;;7.75;2.80;;;23.90;1.00;;;;;;7388410;19;20090;-72
2023/06/29 07:11:59;;;;;;;4.60;3.20;;;23.30;1.00;;;;;;7388244;19;20043;-71
2023/06/29 07:14:29;;;;;;;4.75;3.20;;;22.50;1.00;;;;;;7390083;19;20042;-71
2023/06/29 07:16:59;;;;;;;3.58;2.60;;;22.60;1.00;;;;;;7388929;19;20011;-71
2023/06/29 07:19:29;;;;;;;4.20;2.97;;;22.70;1.00;;;;;;7388001;19;20021;-71
2023/06/29 07:22:02;;;;;;;10.35;3.25;;;23.70;1.00;;;;;;7388336;19;20808;-71
2023/06/29 07:24:35;;;;;;;7.47;4.10;;;23.80;1.00;;;;;;7390400;19;20010;-71
2023/06/29 07:27:08;;;;;;;4.68;2.72;;;23.30;1.00;;;;;;7388281;19;20014;-71
2023/06/29 07:29:38;;;;;;;3.95;2.70;;;23.20;1.00;;;;;;7390240;19;20042;-71
2023/06/29 07:32:09;;;;;;;6.03;3.50;;;23.30;1.00;;;;;;7388703;19;20470;-72
2023/06/29 07:34:39;;;;;;;5.53;3.00;;;23.30;1.00;;;;;;7389365;19;20017;-72
2023/06/29 07:37:09;;;;;;;8.18;3.55;;;23.30;1.00;;;;;;7388388;19;20038;-72
2023/06/29 07:39:39;;;;;;;26.05;16.23;;;23.20;1.00;;;;;;7385818;19;20026;-71
2023/06/29 07:42:12;;;;;;;6.35;3.10;;;23.90;1.00;;;;;;7388321;19;20054;-72
2023/06/29 07:44:49;;;;;;;5.60;2.63;;;24.00;1.00;;;;;;7390251;19;20027;-73
2023/06/29 07:47:19;;;;;;;5.65;2.90;;;24.50;1.00;;;;;;7387903;19;20031;-72
2023/06/29 07:49:49;;;;;;;5.72;2.88;;;24.60;1.00;;;;;;7395818;19;20461;-71
2023/06/29 07:52:19;;;;;;;7.15;2.88;;;24.80;1.00;;;;;;7401548;19;20073;-72
2023/06/29 07:54:49;;;;;;;5.22;3.08;;;24.60;1.00;;;;;;7404199;19;20421;-72
2023/06/29 07:57:22;;;;;;;8.98;2.88;;;25.20;1.00;;;;;;7401678;19;20471;-72
2023/06/29 07:59:55;;;;;;;3.42;2.90;;;25.80;1.00;;;;;;7401316;19;20022;-72
2023/06/29 08:02:25;;;;;;;4.32;2.40;;;24.50;1.00;;;;;;7400983;19;20018;-73
2023/06/29 08:04:54;;;;;;;5.90;3.42;;;24.90;1.00;;;;;;7402585;19;20014;-72
2023/06/29 08:07:27;;;;;;;3.78;3.00;;;25.10;1.00;;;;;;7400679;19;20021;-72
2023/06/29 08:09:57;;;;;;;3.75;2.70;;;24.80;1.00;;;;;;7400925;19;20041;-72
2023/06/29 08:12:30;;;;;;;5.95;3.63;;;24.50;1.00;;;;;;7402384;19;20086;-72
2023/06/29 08:15:00;;;;;;;4.90;2.70;;;24.20;1.00;;;;;;7401245;19;20029;-72
2023/06/29 08:17:31;;;;;;;2.95;2.03;;;24.90;1.00;;;;;;7400999;19;20010;-71
2023/06/29 08:20:04;;;;;;;3.85;2.55;;;25.20;1.00;;;;;;7400615;19;20035;-71
2023/06/29 08:22:34;;;;;;;4.15;2.13;;;24.80;1.00;;;;;;7401143;19;20255;-72
2023/06/29 08:25:04;;;;;;;5.43;2.50;;;25.20;1.00;;;;;;7402470;19;20471;-72
2023/06/29 08:27:37;;;;;;;4.47;2.65;;;25.30;1.00;;;;;;7400647;19;20100;-72
2023/06/29 08:30:08;;;;;;;5.85;2.70;;;25.50;1.00;;;;;;7403167;19;20038;-72
2023/06/29 08:32:38;;;;;;;6.97;2.97;;;24.80;1.00;;;;;;7401032;19;20043;-72
2023/06/29 08:35:09;;;;;;;5.05;2.38;;;24.00;1.00;;;;;;7402959;19;20074;-72
2023/06/29 08:37:39;;;;;;;5.63;2.38;;;24.60;1.00;;;;;;7401030;19;20092;-72
2023/06/29 08:40:11;;;;;;;10.27;2.75;;;25.00;1.00;;;;;;7399255;19;20526;-73
2023/06/29 08:42:44;;;;;;;5.57;2.40;;;25.40;1.00;;;;;;7400976;19;20010;-73
2023/06/29 08:45:14;;;;;;;4.77;2.23;;;25.30;1.00;;;;;;7403314;19;20396;-72
2023/06/29 08:47:46;;;;;;;5.55;2.50;;;25.50;1.00;;;;;;7400151;19;20540;-73
2023/06/29 08:50:17;;;;;;;3.97;2.55;;;25.60;1.00;;;;;;7399028;19;20014;-73
2023/06/29 08:52:47;;;;;;;8.60;2.95;;;25.90;1.00;;;;;;7401613;19;20011;-73
2023/06/29 08:55:18;;;;;;;2.40;1.90;;;26.00;1.00;;;;;;7403622;19;20021;-73
2023/06/29 08:57:50;;;;;;;3.75;2.28;;;26.40;1.00;;;;;;7400518;19;20021;-72
2023/06/29 09:00:22;;;;;;;6.55;3.35;;;26.40;1.00;;;;;;7393483;19;20383;-72
2023/06/29 09:02:55;;;;;;;5.55;3.45;;;27.10;1.00;;;;;;7393298;19;20036;-72
2023/06/29 09:05:26;;;;;;;4.72;2.60;;;27.10;1.00;;;;;;7396065;19;20790;-72
2023/06/29 09:07:56;;;;;;;6.93;2.83;;;26.40;1.00;;;;;;7393355;19;20073;-73
2023/06/29 09:10:25;;;;;;;4.50;2.25;;;26.80;1.00;;;;;;7391327;19;20092;-74
2023/06/29 09:12:58;;;;;;;5.10;2.22;;;26.50;1.00;;;;;;7392845;19;20035;-74
2023/06/29 09:15:30;;;;;;;3.35;2.10;;;26.80;1.00;;;;;;7395332;19;20022;-72
2023/06/29 09:18:00;;;;;;;4.15;1.85;;;26.70;1.00;;;;;;7392035;19;20048;-71
2023/06/29 09:20:35;;;;;;;6.30;1.98;;;27.00;1.00;;;;;;7394900;19;20031;-71
2023/06/29 09:23:06;;;;;;;5.75;2.03;;;27.30;1.00;;;;;;7392649;19;20017;-72
2023/06/29 09:25:38;;;;;;;5.07;2.20;;;26.90;1.00;;;;;;7395414;19;20045;-71
2023/06/29 09:28:12;;;;;;;4.53;2.10;;;26.80;1.00;;;;;;7392341;19;20048;-72
2023/06/29 09:30:43;;;;;;;4.00;2.10;;;26.80;1.00;;;;;;7395166;19;20022;-72
2023/06/29 09:33:15;;;;;;;4.00;1.80;;;26.70;1.00;;;;;;7391937;19;20017;-71
2023/06/29 09:35:47;;;;;;;3.25;1.70;;;26.90;1.00;;;;;;7396133;19;20018;-72
2023/06/29 09:38:18;;;;;;;2.92;2.03;;;27.60;1.00;;;;;;7394571;19;20086;-70
2023/06/29 09:40:50;;;;;;;3.17;1.67;;;27.30;1.00;;;;;;7390045;19;20010;-71
2023/06/29 09:43:24;;;;;;;5.45;2.30;;;27.50;1.00;;;;;;7391795;19;20025;-72
2023/06/29 09:45:54;;;;;;;4.28;1.95;;;27.80;1.00;;;;;;7396246;19;20017;-71
2023/06/29 09:48:26;;;;;;;3.72;1.73;;;28.10;1.00;;;;;;7391188;19;20014;-72
2023/06/29 09:50:59;;;;;;;3.83;1.75;;;28.40;1.00;;;;;;7390523;19;20081;-72
2023/06/29 09:53:33;;;;;;;4.25;1.85;;;28.20;1.00;;;;;;7390658;19;20010;-71
2023/06/29 09:56:03;;;;;;;;;;;27.80;1.00;;;;;;7396357;19;20015;-72
2023/06/29 09:58:36;;;;;;;4.63;1.73;;;27.40;1.00;;;;;;7390510;19;20279;-71
2023/06/29 10:01:09;;;;;;;7.25;1.83;;;27.20;1.00;;;;;;7388528;19;20010;-70
2023/06/29 10:03:39;;;;;;;5.90;2.03;;;27.30;1.00;;;;;;7390208;19;20010;-72
2023/06/29 10:06:15;;;;;;;3.70;1.55;;;28.10;1.00;;;;;;7395272;19;20003;-71
2023/06/29 10:08:51;;;;;;;3.90;1.85;;;27.30;1.00;;;;;;7389216;19;20014;-71
2023/06/29 10:11:22;;;;;;;3.95;2.08;;;27.80;1.00;;;;;;7386619;19;20014;-71
2023/06/29 10:13:57;;;;;;;11.55;1.73;;;27.50;1.00;;;;;;7389845;19;20475;-71
2023/06/29 10:16:26;;;;;;;8.25;2.65;;;27.30;1.00;;;;;;7390516;19;20021;-71
2023/06/29 10:19:02;;;;;;;7.30;2.30;;;26.70;1.00;;;;;;7390383;19;20424;-72
2023/06/29 10:21:32;;;;;;;3.65;2.25;;;26.70;1.00;;;;;;7387693;19;20014;-72
2023/06/29 10:24:04;;;;;;;4.90;2.40;;;26.90;1.00;;;;;;7389081;19;20018;-71
2023/06/29 10:26:34;;;;;;;3.67;2.30;;;27.30;1.00;;;;;;7392955;19;20388;-72
2023/06/29 10:29:09;;;;;;;3.60;2.03;;;27.20;1.00;;;;;;7391256;19;20007;-72
2023/06/29 10:31:39;;;;;;;4.07;2.10;;;27.30;1.00;;;;;;7389790;19;20506;-69
2023/06/29 10:34:10;;;;;;;5.05;2.33;;;27.30;1.00;;;;;;7389547;19;20029;-71
2023/06/29 10:36:51;;;;;;;8.73;2.28;;;28.10;1.00;;;;;;7388646;19;20035;-71
2023/06/29 10:39:40;;;;;;;5.45;2.63;;;28.00;1.00;;;;;;7389502;19;20022;-71
2023/06/29 10:42:35;;;;;;;4.35;2.40;;;27.50;1.00;;;;;;7387737;19;20025;-72
2023/06/29 10:45:33;;;;;;;4.60;2.35;;;27.30;1.00;;;;;;7389853;19;20233;-70
2023/06/29 10:48:13;;;;;;;6.85;2.20;;;28.30;1.00;;;;;;7388973;19;20078;-71
2023/06/29 10:51:00;;;;;;;3.15;2.13;;;28.30;1.00;;;;;;7391907;19;20014;-72
2023/06/29 10:53:30;;;;;;;2.90;1.90;;;28.10;1.00;;;;;;7388618;19;20018;-70
2023/06/29 10:56:00;;;;;;;4.18;2.00;;;28.30;1.00;;;;;;7392224;19;20014;-71
2023/06/29 10:58:37;;;;;;;3.08;1.90;;;27.30;1.00;;;;;;7391105;19;20091;-71
2023/06/29 11:01:11;;;;;;;5.32;2.33;;;27.60;1.00;;;;;;7390729;19;20002;-70
2023/06/29 11:03:42;;;;;;;2.95;2.03;;;28.40;1.00;;;;;;7391718;19;20054;-72
2023/06/29 11:06:12;;;;;;;3.83;2.15;;;29.00;1.00;;;;;;7392127;19;20478;-71
2023/06/29 11:09:12;;;;;;;3.63;2.03;;;29.30;1.00;;;;;;7389733;19;20317;-71
2023/06/29 11:11:43;;;;;;;3.65;1.95;;;29.50;1.00;;;;;;7388648;19;20044;-71
2023/06/29 11:14:14;;;;;;;3.58;2.13;;;29.90;1.00;;;;;;7387180;19;20031;-71
2023/06/29 11:16:47;;;;;;;3.38;1.60;;;29.40;1.00;;;;;;7387921;19;20459;-72
2023/06/29 11:19:17;;;;;;;2.88;2.13;;;28.60;1.00;;;;;;7391874;19;20019;-71
2023/06/29 11:21:47;;;;;;;3.88;2.58;;;28.80;1.00;;;;;;7387742;19;20011;-71
2023/06/29 11:24:21;;;;;;;4.50;2.40;;;29.10;1.00;;;;;;7384778;19;20040;-71
2023/06/29 11:26:51;;;;;;;4.05;2.58;;;30.00;1.00;;;;;;7391045;19;20015;-72
2023/06/29 11:29:21;;;;;;;5.03;2.50;;;30.20;1.00;;;;;;7388069;19;20035;-71
2023/06/29 11:31:56;;;;;;;3.88;2.63;;;29.80;1.00;;;;;;7390283;19;20018;-72
2023/06/29 11:34:26;;;;;;;4.28;2.88;;;29.80;1.00;;;;;;7390957;19;20022;-71
2023/06/29 11:36:56;;;;;;;4.68;2.83;;;29.90;1.00;;;;;;7391577;19;20039;-71
2023/06/29 11:39:50;;;;;;;4.32;2.95;;;30.20;1.00;;;;;;7391175;19;20021;-71
2023/06/29 11:42:21;;;;;;;4.85;2.50;;;30.40;1.00;;;;;;7391716;19;20011;-71
2023/06/29 11:44:52;;;;;;;2.72;2.08;;;29.80;1.00;;;;;;7390884;19;20009;-71
2023/06/29 11:47:24;;;;;;;3.90;2.38;;;29.00;1.00;;;;;;7387229;19;20022;-72
2023/06/29 11:50:03;;;;;;;3.92;2.53;;;29.40;1.00;;;;;;7386890;19;20466;-70
2023/06/29 11:52:35;;;;;;;5.13;2.35;;;28.50;1.00;;;;;;7387531;19;20018;-72
2023/06/29 11:55:07;;;;;;;8.13;2.92;;;29.00;1.00;;;;;;7387643;19;20038;-73
2023/06/29 11:57:39;;;;;;;4.03;2.95;;;28.70;1.00;;;;;;7387990;19;20111;-73
2023/06/29 12:00:33;;;;;;;6.53;2.80;;;28.40;1.00;;;;;;7389735;19;20010;-73
2023/06/29 12:03:13;;;;;;;4.72;2.50;;;28.00;1.00;;;;;;7411778;19;20018;-72
2023/06/29 12:05:46;;;;;;;7.10;2.67;;;27.80;1.00;;;;;;7395874;19;20018;-72
2023/06/29 12:08:20;;;;;;;5.25;2.83;;;28.00;1.00;;;;;;7388873;19;20010;-72
2023/06/29 12:10:50;;;;;;;5.70;2.28;;;28.10;1.00;;;;;;7385813;19;20423;-71
2023/06/29 12:13:20;;;;;;;4.28;2.28;;;28.20;1.00;;;;;;7387199;19;20139;-73
2023/06/29 12:15:52;;;;;;;5.20;2.63;;;27.80;1.00;;;;;;7389229;19;20367;-72
2023/06/29 12:18:29;;;;;;;3.78;2.40;;;27.10;1.00;;;;;;7386974;19;20039;-72
2023/06/29 12:21:05;;;;;;;8.95;2.80;;;27.00;1.00;;;;;;7385412;19;20014;-73
2023/06/29 12:23:35;;;;;;;4.15;2.55;;;26.80;1.00;;;;;;7385050;19;20014;-72
2023/06/29 12:26:05;;;;;;;6.07;2.40;;;26.30;1.00;;;;;;7389785;19;20021;-72
2023/06/29 12:28:35;;;;;;;11.02;2.60;;;25.80;1.00;;;;;;7386430;19;20070;-72
2023/06/29 12:31:05;;;;;;;6.85;2.67;;;25.50;1.00;;;;;;7384299;19;20094;-70
2023/06/29 12:33:38;;;;;;;5.45;2.58;;;25.50;1.00;;;;;;7386353;19;20018;-71
2023/06/29 12:36:08;;;;;;;5.07;2.50;;;25.40;1.00;;;;;;7395684;19;20031;-72
2023/06/29 12:38:38;;;;;;;6.00;2.63;;;26.00;1.00;;;;;;7395090;19;20019;-72
2023/06/29 12:41:08;;;;;;;7.47;2.50;;;26.80;1.00;;;;;;7392195;19;20031;-72
2023/06/29 12:43:38;;;;;;;5.82;2.65;;;26.70;1.00;;;;;;7392113;19;20018;-72
2023/06/29 12:46:09;;;;;;;3.35;2.45;;;26.70;1.00;;;;;;7396711;19;20507;-72
2023/06/29 12:48:43;;;;;;;5.82;2.38;;;26.70;1.00;;;;;;7393753;19;20018;-71
2023/06/29 12:51:13;;;;;;;;;;;26.50;1.00;;;;;;7392835;19;20043;-71
2023/06/29 12:53:43;;;;;;;5.20;2.50;;;26.30;1.00;;;;;;7388551;19;20262;-72
2023/06/29 12:56:13;;;;;;;6.15;2.72;;;26.90;1.00;;;;;;7396116;19;20023;-72
2023/06/29 12:58:43;;;;;;;5.68;2.80;;;26.60;1.00;;;;;;7391785;19;20075;-72
2023/06/29 13:01:13;;;;;;;5.88;2.72;;;26.50;1.00;;;;;;7386467;19;20029;-72
2023/06/29 13:03:45;;;;;;;9.45;2.78;;;26.30;1.00;;;;;;7390564;19;20014;-72
2023/06/29 13:06:19;;;;;;;5.72;2.88;;;26.30;1.00;;;;;;7393528;19;20441;-70
2023/06/29 13:08:49;;;;;;;3.47;2.63;;;26.30;1.00;;;;;;7389189;19;20018;-72
2023/06/29 13:11:20;;;;;;;4.68;2.58;;;26.20;1.00;;;;;;7389077;19;20039;-71
2023/06/29 13:13:50;;;;;;;6.45;2.75;;;26.80;1.00;;;;;;7391559;19;20014;-72
2023/06/29 13:16:21;;;;;;;4.43;2.30;;;27.20;1.00;;;;;;7393173;19;20017;-73
2023/06/29 13:18:54;;;;;;;7.75;2.58;;;27.50;1.00;;;;;;7391867;19;20027;-72
2023/06/29 13:21:24;;;;;;;6.97;2.20;;;27.20;1.00;;;;;;7388660;19;20651;-72